Upstream stations:
Downstream station:
SHEF ID: SDFO2 Deep Fork River at Stroud
STATION TYPE:
PRECIP STAGE RIV-FLOW VOLTAGE BAT-LOAD
in ft cfs volt volt
Ccp-Rev Ccp-Rev Ccp-Rev Ccp-Rev Ccp-Rev
(US/Central)
04/14 00:00 0.01 11.13 304 12.65 12.57
04/14 01:00 0.11 11.13 304 12.65 12.57
04/14 02:00 0.27 11.17 316 12.65 12.57
04/14 03:00 0.14 11.18 318 12.65 12.49
04/14 04:00 0.14 11.21 327 12.57 12.49
04/14 05:00 0.01 11.22 330 12.57 12.49
04/14 06:00 0.00 11.24 335 12.57 12.41
04/14 07:00 0.02 11.26 341 12.57 12.41
04/14 08:00 0.00 11.28 347 12.57 12.41
04/14 09:00 0.00 11.30 353 12.57 12.41
04/14 10:00 0.00 11.32 358 12.57 12.41
04/14 11:00 0.00 11.35 367 12.65 12.57
04/14 12:00 0.00 11.38 375 12.73 12.57
04/14 13:00 0.00 11.42 387 12.89 12.73
04/14 14:00 0.00 11.48 404 13.21 12.97
04/14 15:00 0.00 11.53 418 13.92 13.21
04/14 16:00 0.00 11.71 469 13.21 13.13
04/14 17:00 0.00 11.83 503 12.89 12.81
04/14 18:00 0.00 11.92 529 12.81 12.65
04/14 19:00 0.01 11.99 549 12.73 12.65
04/14 20:00 0.01 12.04 563 12.65 12.57
04/14 21:00 0.03 12.07 573 12.65 12.49
04/14 22:00 0.01 12.09 580 12.57 12.49
04/14 23:00 ---- ---- ---- ---- ----